createdAt,value
2023-05-19T00:00:40.363Z,8.64
2023-05-19T00:04:53.208Z,8.48
2023-05-19T00:09:08.842Z,8.51
2023-05-19T00:13:24.716Z,8.34
2023-05-19T00:17:39.048Z,8.19
2023-05-19T00:21:51.552Z,8.23
2023-05-19T00:26:04.091Z,8.01
2023-05-19T00:30:16.768Z,7.92
2023-05-19T00:34:29.763Z,7.79
2023-05-19T00:38:42.253Z,7.72
2023-05-19T00:42:54.769Z,7.56
2023-05-19T00:47:08.036Z,7.51
2023-05-19T00:51:20.958Z,7.53
2023-05-19T00:55:35.462Z,7.49
2023-05-19T00:59:49.567Z,7.59
2023-05-19T01:04:02.972Z,7.48
2023-05-19T01:08:15.633Z,7.37
2023-05-19T01:12:28.359Z,7.42
2023-05-19T01:16:59.130Z,7.33
2023-05-19T01:21:45.105Z,7.28
2023-05-19T01:26:41.017Z,7.17
2023-05-19T01:30:59.915Z,7.10
2023-05-19T01:35:15.024Z,7.13
2023-05-19T01:39:29.328Z,7.18
2023-05-19T01:43:41.826Z,7.22
2023-05-19T01:47:58.200Z,7.27
2023-05-19T01:52:10.953Z,7.29
2023-05-19T01:56:40.115Z,7.40
2023-05-19T02:01:36.452Z,7.46
2023-05-19T02:06:08.269Z,7.60
2023-05-19T02:10:28.909Z,7.75
2023-05-19T02:14:49.687Z,7.75
2023-05-19T02:19:02.311Z,7.85
2023-05-19T02:23:15.260Z,7.88
2023-05-19T02:27:27.810Z,7.85
2023-05-19T02:31:40.337Z,8.04
2023-05-19T02:36:01.163Z,8.14
2023-05-19T02:40:13.669Z,8.08
2023-05-19T02:44:26.255Z,8.08
2023-05-19T02:48:38.803Z,8.10
2023-05-19T02:52:53.351Z,8.09
2023-05-19T02:57:06.404Z,8.14
2023-05-19T03:01:29.001Z,8.18
2023-05-19T03:05:42.242Z,8.13
2023-05-19T03:09:54.845Z,8.29
2023-05-19T03:14:16.839Z,8.29
2023-05-19T03:18:31.379Z,8.28
2023-05-19T03:22:43.881Z,8.10
2023-05-19T03:26:56.602Z,8.30
2023-05-19T03:31:09.135Z,8.19
2023-05-19T03:35:22.437Z,8.34
2023-05-19T03:39:34.954Z,8.27
2023-05-19T03:43:47.494Z,8.41
2023-05-19T03:48:00.060Z,8.48
2023-05-19T03:52:13.747Z,8.54
2023-05-19T03:56:28.309Z,8.52
2023-05-19T04:00:41.515Z,8.40
2023-05-19T04:04:54.556Z,8.59
2023-05-19T04:09:16.629Z,8.50
2023-05-19T04:13:29.125Z,8.68
2023-05-19T04:17:41.972Z,8.66
2023-05-19T04:21:54.525Z,8.68
2023-05-19T04:26:07.700Z,8.65
2023-05-19T04:30:23.010Z,8.77
2023-05-19T04:34:36.385Z,8.83
2023-05-19T04:39:07.739Z,8.96
2023-05-19T04:43:20.256Z,9.26
2023-05-19T04:47:37.647Z,9.20
2023-05-19T04:51:51.858Z,9.52
2023-05-19T04:56:10.485Z,9.45
2023-05-19T05:00:22.952Z,9.47
2023-05-19T05:04:37.065Z,9.82
2023-05-19T05:08:50.227Z,10.13
2023-05-19T05:13:03.668Z,10.31
2023-05-19T05:17:16.965Z,10.38
2023-05-19T05:21:32.861Z,10.44
2023-05-19T05:25:46.331Z,10.43
2023-05-19T05:30:06.647Z,10.56
2023-05-19T05:34:29.338Z,10.50
2023-05-19T05:38:41.791Z,10.81
2023-05-19T05:42:56.569Z,11.05
2023-05-19T05:47:19.472Z,11.18
2023-05-19T05:51:33.756Z,11.13
2023-05-19T05:55:49.461Z,11.20
2023-05-19T06:00:18.502Z,11.26
2023-05-19T06:04:31.817Z,11.26
2023-05-19T06:08:44.330Z,11.41
2023-05-19T06:13:07.304Z,11.51
2023-05-19T06:17:29.875Z,11.54
2023-05-19T06:21:43.888Z,11.40
2023-05-19T06:26:06.803Z,11.45
2023-05-19T06:30:19.340Z,11.61
2023-05-19T06:34:32.040Z,11.66
2023-05-19T06:38:44.502Z,11.46
2023-05-19T06:42:57.196Z,11.74
2023-05-19T06:47:09.755Z,12.30
2023-05-19T06:51:32.435Z,12.35
2023-05-19T06:55:58.008Z,12.60
2023-05-19T07:00:15.282Z,12.97
2023-05-19T07:04:40.814Z,12.33
2023-05-19T07:08:53.310Z,13.24
2023-05-19T07:13:16.332Z,12.96
2023-05-19T07:17:28.849Z,13.13
2023-05-19T07:21:43.253Z,13.64
2023-05-19T07:25:58.724Z,14.08
2023-05-19T07:30:11.816Z,14.04
2023-05-19T07:34:25.982Z,14.25
2023-05-19T07:38:38.503Z,14.28
2023-05-19T07:42:51.498Z,15.04
2023-05-19T07:47:04.575Z,14.14
2023-05-19T07:51:17.095Z,14.73
2023-05-19T07:55:29.643Z,14.56
2023-05-19T07:59:42.159Z,15.14
2023-05-19T08:03:54.790Z,15.24
2023-05-19T08:08:08.617Z,15.34
2023-05-19T08:12:21.135Z,14.28
2023-05-19T08:16:33.598Z,14.41
2023-05-19T08:20:47.160Z,14.95
2023-05-19T08:24:59.611Z,15.06
2023-05-19T08:29:12.169Z,14.61
2023-05-19T08:33:25.060Z,13.99
2023-05-19T08:37:39.391Z,14.16
2023-05-19T08:41:52.325Z,13.68
2023-05-19T08:46:05.119Z,13.96
2023-05-19T08:50:22.413Z,13.73
2023-05-19T08:54:52.196Z,14.14
2023-05-19T08:59:07.378Z,13.84
2023-05-19T09:03:24.066Z,13.84
2023-05-19T09:07:38.655Z,13.90
2023-05-19T09:11:51.935Z,14.23
2023-05-19T09:16:05.235Z,14.38
2023-05-19T09:20:18.207Z,13.58
2023-05-19T09:24:34.533Z,13.49
2023-05-19T09:28:48.603Z,14.48
2023-05-19T09:33:01.743Z,14.35
2023-05-19T09:37:14.285Z,14.11
2023-05-19T09:41:28.235Z,14.27
2023-05-19T09:45:59.750Z,14.00
2023-05-19T09:50:14.858Z,13.24
2023-05-19T09:54:32.764Z,13.75
2023-05-19T09:58:46.312Z,13.83
2023-05-19T10:03:06.089Z,14.02
2023-05-19T10:07:20.444Z,14.47
2023-05-19T10:11:33.169Z,14.08
2023-05-19T10:15:59.293Z,13.86
2023-05-19T10:20:15.301Z,13.84
2023-05-19T10:24:27.958Z,14.89
2023-05-19T10:28:44.012Z,14.19
2023-05-19T10:33:11.957Z,14.14
2023-05-19T10:37:47.487Z,14.43
2023-05-19T10:42:18.139Z,14.50
2023-05-19T10:46:31.527Z,15.08
2023-05-19T10:50:48.514Z,14.24
2023-05-19T10:55:02.883Z,14.10
2023-05-19T10:59:38.618Z,14.04
2023-05-19T11:03:54.594Z,14.85
2023-05-19T11:08:12.367Z,14.77
2023-05-19T11:12:25.586Z,15.00
2023-05-19T11:16:38.291Z,15.49
2023-05-19T11:20:59.028Z,14.70
2023-05-19T11:25:11.601Z,14.30
2023-05-19T11:29:24.353Z,14.26
2023-05-19T11:33:37.202Z,13.96
2023-05-19T11:37:51.359Z,14.25
2023-05-19T11:42:03.864Z,14.49
2023-05-19T11:46:16.502Z,14.40
2023-05-19T11:50:29.506Z,15.39
2023-05-19T11:54:45.298Z,15.96
2023-05-19T11:58:57.883Z,15.56
2023-05-19T12:03:23.054Z,16.16
2023-05-19T12:07:35.886Z,15.36
2023-05-19T12:11:48.474Z,15.91
2023-05-19T12:16:11.128Z,16.09
2023-05-19T12:20:25.153Z,15.27
2023-05-19T12:24:38.658Z,14.90
2023-05-19T12:28:52.370Z,14.87
2023-05-19T12:33:05.276Z,16.03
2023-05-19T12:37:17.881Z,15.83
2023-05-19T12:41:30.425Z,17.17
2023-05-19T12:45:43.367Z,17.86
2023-05-19T12:50:10.343Z,18.63
2023-05-19T12:54:23.123Z,18.43
2023-05-19T12:58:46.801Z,17.77
2023-05-19T13:03:07.133Z,17.92
2023-05-19T13:07:21.682Z,17.72
2023-05-19T13:11:34.175Z,18.76
2023-05-19T13:15:49.514Z,18.94
2023-05-19T13:20:13.331Z,20.63
2023-05-19T13:24:25.922Z,20.86
2023-05-19T13:28:38.356Z,21.28
2023-05-19T13:32:53.157Z,20.58
2023-05-19T13:37:06.642Z,21.81
2023-05-19T13:41:27.597Z,22.72
2023-05-19T13:45:40.179Z,23.95
2023-05-19T13:49:53.210Z,23.27
2023-05-19T13:54:06.039Z,21.09
2023-05-19T13:58:18.818Z,22.17
2023-05-19T14:02:31.512Z,22.63
2023-05-19T14:06:44.156Z,21.27
2023-05-19T14:10:56.907Z,22.65
2023-05-19T14:15:19.670Z,22.50
2023-05-19T14:19:32.281Z,21.30
2023-05-19T14:23:45.054Z,20.63
2023-05-19T14:28:07.570Z,19.14
2023-05-19T14:32:20.086Z,19.12
2023-05-19T14:36:33.991Z,18.78
2023-05-19T14:40:46.574Z,19.38
2023-05-19T14:44:59.078Z,18.41
2023-05-19T14:49:18.423Z,18.29
2023-05-19T14:53:31.545Z,18.54
2023-05-19T14:57:44.005Z,18.70
2023-05-19T15:01:56.539Z,18.29
2023-05-19T15:06:19.048Z,19.13
2023-05-19T15:10:31.829Z,19.02
2023-05-19T15:14:54.499Z,19.59
2023-05-19T15:19:17.067Z,19.51
2023-05-19T15:23:33.430Z,19.39
2023-05-19T15:27:45.971Z,19.37
2023-05-19T15:31:59.298Z,19.88
2023-05-19T15:36:17.055Z,19.34
2023-05-19T15:40:29.580Z,19.32
2023-05-19T15:44:52.140Z,19.20
2023-05-19T15:49:06.137Z,19.61
2023-05-19T15:53:18.969Z,19.13
2023-05-19T15:57:31.584Z,18.79
2023-05-19T16:01:44.123Z,18.57
2023-05-19T16:05:57.489Z,18.35
2023-05-19T16:10:10.630Z,19.14
2023-05-19T16:14:23.975Z,19.59
2023-05-19T16:18:36.643Z,19.13
2023-05-19T16:22:49.125Z,20.59
2023-05-19T16:27:02.153Z,21.85
2023-05-19T16:31:14.783Z,22.48
2023-05-19T16:35:30.175Z,21.99
2023-05-19T16:39:44.521Z,21.61
2023-05-19T16:43:57.042Z,21.12
2023-05-19T16:48:09.669Z,19.49
2023-05-19T16:52:22.255Z,19.01
2023-05-19T16:56:44.840Z,19.42
2023-05-19T17:00:58.521Z,19.24
2023-05-19T17:05:12.338Z,18.71
2023-05-19T17:09:28.191Z,18.61
2023-05-19T17:13:42.644Z,19.20
2023-05-19T17:18:04.121Z,18.70
2023-05-19T17:22:28.211Z,19.19
2023-05-19T17:26:42.039Z,18.01
2023-05-19T17:30:54.533Z,17.51
2023-05-19T17:35:17.156Z,17.67
2023-05-19T17:39:29.667Z,17.16
2023-05-19T17:43:42.436Z,17.01
2023-05-19T17:48:05.692Z,16.66
2023-05-19T17:52:20.050Z,16.71
2023-05-19T17:56:35.142Z,16.43
2023-05-19T18:00:47.911Z,16.53
2023-05-19T18:05:01.112Z,16.34
2023-05-19T18:09:15.137Z,16.20
2023-05-19T18:13:27.661Z,16.06
2023-05-19T18:17:40.234Z,16.05
2023-05-19T18:21:52.776Z,15.90
2023-05-19T18:26:05.281Z,15.84
2023-05-19T18:30:17.853Z,15.77
2023-05-19T18:34:37.597Z,15.74
2023-05-19T18:38:51.087Z,15.69
2023-05-19T18:43:03.636Z,15.53
2023-05-19T18:47:16.133Z,15.61
2023-05-19T18:51:29.180Z,15.40
2023-05-19T18:55:41.713Z,15.28
2023-05-19T18:59:54.414Z,15.37
2023-05-19T19:04:07.039Z,15.26
2023-05-19T19:08:20.365Z,15.19
2023-05-19T19:12:32.856Z,15.13
2023-05-19T19:16:55.340Z,15.11
2023-05-19T19:21:07.917Z,15.12
2023-05-19T19:25:23.134Z,15.15
2023-05-19T19:29:36.207Z,15.13
2023-05-19T19:33:48.716Z,15.09
2023-05-19T19:38:01.461Z,15.12
2023-05-19T19:42:13.956Z,15.10
2023-05-19T19:46:26.639Z,15.14
2023-05-19T19:50:39.482Z,15.04
2023-05-19T19:54:52.212Z,15.03
2023-05-19T19:59:04.728Z,14.94
2023-05-19T20:03:28.538Z,14.99
2023-05-19T20:07:41.242Z,15.11
2023-05-19T20:11:53.756Z,15.13
2023-05-19T20:16:06.401Z,15.14
2023-05-19T20:20:18.905Z,14.81
2023-05-19T20:24:31.567Z,15.05
2023-05-19T20:28:44.165Z,14.99
2023-05-19T20:32:56.827Z,14.92
2023-05-19T20:37:09.355Z,14.98
2023-05-19T20:41:21.888Z,14.78
2023-05-19T20:45:34.663Z,14.85
2023-05-19T20:49:49.116Z,14.65
2023-05-19T20:54:01.850Z,14.78
2023-05-19T20:58:27.360Z,14.74
2023-05-19T21:02:39.874Z,14.77
2023-05-19T21:06:52.480Z,14.69
2023-05-19T21:11:05.000Z,14.75
2023-05-19T21:15:24.706Z,14.66
2023-05-19T21:19:37.860Z,14.58
2023-05-19T21:23:50.341Z,14.55
2023-05-19T21:28:02.894Z,14.42
2023-05-19T21:32:15.526Z,14.38
2023-05-19T21:36:28.401Z,14.33
2023-05-19T21:40:40.971Z,14.46
2023-05-19T21:44:53.492Z,14.40
2023-05-19T21:49:07.072Z,14.38
2023-05-19T21:53:21.489Z,14.30
2023-05-19T21:57:34.040Z,14.32
2023-05-19T22:01:46.540Z,14.25
2023-05-19T22:05:59.041Z,14.25
2023-05-19T22:10:11.725Z,14.18
2023-05-19T22:14:24.358Z,14.15
2023-05-19T22:18:36.881Z,14.04
2023-05-19T22:22:49.377Z,14.03
2023-05-19T22:27:02.313Z,13.73
2023-05-19T22:31:14.847Z,13.64
2023-05-19T22:35:27.492Z,13.44
2023-05-19T22:39:40.414Z,13.30
2023-05-19T22:44:02.956Z,13.18
2023-05-19T22:48:15.532Z,13.07
2023-05-19T22:52:28.098Z,12.96
2023-05-19T22:56:50.574Z,12.89
2023-05-19T23:01:03.043Z,12.77
2023-05-19T23:05:16.076Z,12.74
2023-05-19T23:09:28.528Z,12.76
2023-05-19T23:13:51.281Z,12.68
2023-05-19T23:18:09.467Z,12.59
2023-05-19T23:22:21.973Z,12.51
2023-05-19T23:26:45.141Z,12.41
2023-05-19T23:30:57.732Z,12.46
2023-05-19T23:35:21.309Z,12.35
2023-05-19T23:39:33.952Z,12.34
2023-05-19T23:43:56.527Z,12.24
2023-05-19T23:48:09.096Z,12.28
2023-05-19T23:52:21.826Z,12.14
2023-05-19T23:56:35.023Z,12.04
